createdAt,value
2018-08-30T00:00:23.192Z,0
2018-08-30T00:01:22.676Z,0
2018-08-30T00:02:22.672Z,0
2018-08-30T00:03:23.186Z,0
2018-08-30T00:04:22.927Z,0
2018-08-30T00:05:22.944Z,0
2018-08-30T00:06:22.923Z,0
2018-08-30T00:07:23.179Z,0
2018-08-30T00:08:23.182Z,0
2018-08-30T00:09:23.179Z,0
2018-08-30T00:10:22.915Z,0
2018-08-30T00:11:23.172Z,0
2018-08-30T00:12:22.930Z,0
2018-08-30T00:13:23.164Z,0
2018-08-30T00:14:22.651Z,0
2018-08-30T00:15:23.161Z,0
2018-08-30T00:16:23.160Z,0
2018-08-30T00:17:22.906Z,0
2018-08-30T00:18:23.155Z,0
2018-08-30T00:19:22.898Z,0
2018-08-30T00:20:22.638Z,0
2018-08-30T00:21:22.638Z,0
2018-08-30T00:22:22.891Z,0
2018-08-30T00:23:22.891Z,0
2018-08-30T00:24:23.142Z,0
2018-08-30T00:25:23.144Z,0
2018-08-30T00:26:23.146Z,0
2018-08-30T00:27:23.148Z,0
2018-08-30T00:28:22.881Z,0
2018-08-30T00:29:22.877Z,0
2018-08-30T00:30:23.130Z,0
2018-08-30T00:31:23.130Z,0
2018-08-30T00:32:23.129Z,0
2018-08-30T00:33:22.869Z,0
2018-08-30T00:34:22.863Z,0
2018-08-30T00:35:22.867Z,0
2018-08-30T00:36:22.862Z,0
2018-08-30T00:37:23.116Z,0
2018-08-30T00:38:23.119Z,0
2018-08-30T00:39:22.851Z,0
2018-08-30T00:40:23.112Z,0
2018-08-30T00:41:23.463Z,0
2018-08-30T00:42:23.109Z,0
2018-08-30T00:43:23.105Z,0
2018-08-30T00:44:23.098Z,0
2018-08-30T00:45:23.097Z,0
2018-08-30T00:46:23.089Z,0
2018-08-30T00:47:23.108Z,0
2018-08-30T00:48:22.828Z,0
2018-08-30T00:49:22.838Z,0
2018-08-30T00:50:23.084Z,0
2018-08-30T00:51:22.833Z,0
2018-08-30T00:52:23.079Z,0
2018-08-30T00:53:23.078Z,0
2018-08-30T00:54:23.073Z,0
2018-08-30T00:55:22.811Z,0
2018-08-30T00:56:23.068Z,0
2018-08-30T00:57:22.807Z,0
2018-08-30T00:58:23.063Z,0
2018-08-30T00:59:23.067Z,0
2018-08-30T01:00:22.552Z,0
2018-08-30T01:01:23.058Z,0
2018-08-30T01:02:23.061Z,0
2018-08-30T01:03:23.047Z,0
2018-08-30T01:04:23.048Z,0
2018-08-30T01:05:22.808Z,0
2018-08-30T01:06:22.812Z,0
2018-08-30T01:07:22.780Z,0
2018-08-30T01:08:22.523Z,0
2018-08-30T01:09:22.778Z,0
2018-08-30T01:10:22.777Z,0
2018-08-30T01:11:23.023Z,0
2018-08-30T01:12:23.026Z,0
2018-08-30T01:13:22.770Z,0
2018-08-30T01:14:23.024Z,0
2018-08-30T01:15:23.014Z,0
2018-08-30T01:16:23.020Z,0
2018-08-30T01:17:22.750Z,0
2018-08-30T01:18:22.751Z,0
2018-08-30T01:19:22.749Z,0
2018-08-30T01:20:22.747Z,0
2018-08-30T01:21:22.496Z,0
2018-08-30T01:22:22.736Z,0
2018-08-30T01:23:22.991Z,0
2018-08-30T01:24:22.992Z,0
2018-08-30T01:25:22.473Z,0
2018-08-30T01:26:22.989Z,0
2018-08-30T01:27:22.989Z,0
2018-08-30T01:28:22.463Z,0
2018-08-30T01:29:22.970Z,0
2018-08-30T01:30:22.970Z,0
2018-08-30T01:31:22.972Z,0
2018-08-30T01:32:22.712Z,0
2018-08-30T01:33:22.712Z,0
2018-08-30T01:34:22.705Z,0
2018-08-30T01:35:22.448Z,0
2018-08-30T01:36:22.953Z,0
2018-08-30T01:37:22.949Z,0
2018-08-30T01:38:22.946Z,0
2018-08-30T01:39:22.941Z,0
2018-08-30T01:40:22.685Z,0
2018-08-30T01:41:22.938Z,0
2018-08-30T01:42:22.935Z,0
2018-08-30T01:43:22.424Z,0
2018-08-30T01:44:22.418Z,0
2018-08-30T01:45:22.922Z,0
2018-08-30T01:46:22.919Z,0
2018-08-30T01:47:22.663Z,0
2018-08-30T01:48:22.661Z,0
2018-08-30T01:49:22.659Z,0
2018-08-30T01:50:22.651Z,0
2018-08-30T01:51:22.907Z,0
2018-08-30T01:52:22.907Z,0
2018-08-30T01:53:22.643Z,0
2018-08-30T01:54:22.888Z,0
2018-08-30T01:55:22.634Z,0
2018-08-30T01:56:22.633Z,0
2018-08-30T01:57:22.115Z,0
2018-08-30T01:58:22.635Z,0
2018-08-30T01:59:22.881Z,0
2018-08-30T02:00:22.621Z,0
2018-08-30T02:01:22.870Z,0
2018-08-30T02:02:22.872Z,0
2018-08-30T02:03:22.864Z,0
2018-08-30T02:04:22.605Z,0
2018-08-30T02:05:22.859Z,0
2018-08-30T02:06:22.600Z,0
2018-08-30T02:07:22.850Z,0
2018-08-30T02:08:22.590Z,0
2018-08-30T02:09:22.333Z,0
2018-08-30T02:10:22.846Z,0
2018-08-30T02:11:22.580Z,0
2018-08-30T02:12:22.583Z,0
2018-08-30T02:13:22.573Z,0
2018-08-30T02:14:22.831Z,0
2018-08-30T02:15:22.829Z,0
2018-08-30T02:16:22.825Z,0
2018-08-30T02:17:22.822Z,0
2018-08-30T02:18:22.814Z,0
2018-08-30T02:19:22.815Z,0
2018-08-30T02:20:22.555Z,0
2018-08-30T02:21:22.555Z,0
2018-08-30T02:22:22.548Z,0
2018-08-30T02:23:22.803Z,0
2018-08-30T02:24:22.292Z,0
2018-08-30T02:25:22.545Z,0
2018-08-30T02:26:22.799Z,0
2018-08-30T02:27:22.530Z,0
2018-08-30T02:28:22.530Z,0
2018-08-30T02:29:22.789Z,0
2018-08-30T02:30:22.537Z,0
2018-08-30T02:31:22.776Z,0
2018-08-30T02:32:22.790Z,0
2018-08-30T02:33:22.768Z,0
2018-08-30T02:34:22.250Z,0
2018-08-30T02:35:22.768Z,0
2018-08-30T02:36:22.759Z,0
2018-08-30T02:37:22.237Z,0
2018-08-30T02:38:22.239Z,0
2018-08-30T02:39:22.498Z,0
2018-08-30T02:40:22.232Z,0
2018-08-30T02:41:22.520Z,0
2018-08-30T02:42:22.738Z,0
2018-08-30T02:43:22.483Z,0
2018-08-30T02:44:22.726Z,0
2018-08-30T02:45:22.206Z,0
2018-08-30T02:46:22.515Z,0
2018-08-30T02:47:22.464Z,0
2018-08-30T02:48:22.718Z,0
2018-08-30T02:49:22.457Z,0
2018-08-30T02:50:22.705Z,0
2018-08-30T02:51:22.700Z,0
2018-08-30T02:52:22.752Z,0
2018-08-30T02:53:22.700Z,0
2018-08-30T02:54:22.431Z,0
2018-08-30T02:55:22.432Z,0
2018-08-30T02:56:22.165Z,0
2018-08-30T02:57:22.679Z,0
2018-08-30T02:58:22.159Z,0
2018-08-30T02:59:22.425Z,0
2018-08-30T03:00:22.415Z,0
2018-08-30T03:01:22.662Z,0
2018-08-30T03:02:21.891Z,0
2018-08-30T03:03:22.159Z,0
2018-08-30T03:04:22.649Z,0
2018-08-30T03:05:22.651Z,0
2018-08-30T03:06:22.653Z,0
2018-08-30T03:07:22.643Z,0
2018-08-30T03:08:22.126Z,0
2018-08-30T03:09:22.653Z,0
2018-08-30T03:10:22.376Z,0
2018-08-30T03:11:22.368Z,0
2018-08-30T03:12:22.631Z,0
2018-08-30T03:13:22.623Z,0
2018-08-30T03:14:22.630Z,0
2018-08-30T03:15:22.359Z,0
2018-08-30T03:16:22.607Z,0
2018-08-30T03:17:22.353Z,0
2018-08-30T03:18:22.625Z,0
2018-08-30T03:19:22.613Z,0
2018-08-30T03:20:22.596Z,0
2018-08-30T03:21:22.584Z,0
2018-08-30T03:22:22.588Z,0
2018-08-30T03:23:22.600Z,0
2018-08-30T03:24:22.577Z,0
2018-08-30T03:25:22.582Z,0
2018-08-30T03:26:22.620Z,0
2018-08-30T03:27:22.318Z,0
2018-08-30T03:28:22.045Z,0
2018-08-30T03:29:22.556Z,0
2018-08-30T03:30:23.028Z,0
2018-08-30T03:31:22.562Z,0
2018-08-30T03:32:22.298Z,0
2018-08-30T03:33:22.298Z,0
2018-08-30T03:34:22.284Z,0
2018-08-30T03:35:22.017Z,0
2018-08-30T03:36:22.272Z,0
2018-08-30T03:37:22.532Z,0
2018-08-30T03:38:22.528Z,0
2018-08-30T03:39:22.262Z,0
2018-08-30T03:40:22.527Z,0
2018-08-30T03:41:22.513Z,0
2018-08-30T03:42:22.253Z,0
2018-08-30T03:43:22.001Z,0
2018-08-30T03:44:21.983Z,0
2018-08-30T03:45:22.498Z,0
2018-08-30T03:46:22.229Z,0
2018-08-30T03:47:22.228Z,0
2018-08-30T03:48:22.485Z,0
2018-08-30T03:49:22.223Z,0
2018-08-30T03:50:22.221Z,0
2018-08-30T03:51:22.476Z,0
2018-08-30T03:52:22.460Z,0
2018-08-30T03:53:22.207Z,0
2018-08-30T03:54:22.457Z,0
2018-08-30T03:55:22.861Z,0
2018-08-30T03:56:22.457Z,0
2018-08-30T03:57:22.448Z,0
2018-08-30T03:58:22.188Z,0
2018-08-30T03:59:22.442Z,0
2018-08-30T04:00:21.921Z,0
2018-08-30T04:01:22.428Z,0
2018-08-30T04:02:22.497Z,0
2018-08-30T04:03:22.419Z,0
2018-08-30T04:04:22.586Z,0
2018-08-30T04:05:22.422Z,0
2018-08-30T04:06:22.418Z,0
2018-08-30T04:07:22.401Z,0
2018-08-30T04:08:22.406Z,4
2018-08-30T04:09:22.136Z,4
2018-08-30T04:10:22.134Z,4
2018-08-30T04:11:22.137Z,0
2018-08-30T04:12:22.130Z,4
2018-08-30T04:13:22.164Z,8
2018-08-30T04:14:21.605Z,4
2018-08-30T04:15:22.114Z,12
2018-08-30T04:16:21.849Z,12
2018-08-30T04:17:21.851Z,16
2018-08-30T04:18:22.102Z,16
2018-08-30T04:19:22.093Z,20
2018-08-30T04:20:22.347Z,24
2018-08-30T04:21:21.830Z,24
2018-08-30T04:22:22.345Z,28
2018-08-30T04:23:22.339Z,28
2018-08-30T04:24:22.326Z,32
2018-08-30T04:25:22.072Z,36
2018-08-30T04:26:21.807Z,44
2018-08-30T04:27:22.060Z,56
2018-08-30T04:28:21.802Z,64
2018-08-30T04:29:22.060Z,80
2018-08-30T04:30:22.057Z,92
2018-08-30T04:31:21.828Z,108
2018-08-30T04:32:22.315Z,124
2018-08-30T04:33:22.288Z,132
2018-08-30T04:34:22.041Z,144
2018-08-30T04:35:22.030Z,160
2018-08-30T04:36:22.024Z,176
2018-08-30T04:37:22.021Z,192
2018-08-30T04:38:22.022Z,208
2018-08-30T04:39:22.269Z,228
2018-08-30T04:40:22.266Z,248
2018-08-30T04:41:22.001Z,276
2018-08-30T04:42:22.160Z,312
2018-08-30T04:43:21.995Z,348
2018-08-30T04:44:21.999Z,380
2018-08-30T04:45:22.266Z,408
2018-08-30T04:46:21.728Z,448
2018-08-30T04:47:21.978Z,476
2018-08-30T04:48:21.720Z,432
2018-08-30T04:49:21.981Z,484
2018-08-30T04:50:22.680Z,580
2018-08-30T04:51:22.220Z,600
2018-08-30T04:52:22.220Z,564
2018-08-30T04:53:21.950Z,540
2018-08-30T04:54:22.204Z,532
2018-08-30T04:55:22.201Z,480
2018-08-30T04:56:21.947Z,388
2018-08-30T04:57:21.675Z,324
2018-08-30T04:58:22.191Z,292
2018-08-30T04:59:21.926Z,244
2018-08-30T05:00:22.178Z,244
2018-08-30T05:01:22.177Z,292
2018-08-30T05:02:22.171Z,300
2018-08-30T05:03:21.908Z,320
2018-08-30T05:04:22.164Z,340
2018-08-30T05:05:21.903Z,400
2018-08-30T05:06:21.383Z,464
2018-08-30T05:07:22.150Z,520
2018-08-30T05:08:22.155Z,580
2018-08-30T05:09:21.895Z,644
2018-08-30T05:10:22.134Z,692
2018-08-30T05:11:21.877Z,688
2018-08-30T05:12:21.875Z,772
2018-08-30T05:13:21.865Z,904
2018-08-30T05:14:22.123Z,1016
2018-08-30T05:15:21.868Z,1140
2018-08-30T05:16:22.151Z,1236
2018-08-30T05:17:21.854Z,1308
2018-08-30T05:18:22.109Z,1372
2018-08-30T05:19:22.095Z,1420
2018-08-30T05:20:21.835Z,1396
2018-08-30T05:21:22.097Z,1352
2018-08-30T05:22:22.085Z,1324
2018-08-30T05:23:22.086Z,1284
2018-08-30T05:24:22.078Z,1252
2018-08-30T05:25:22.075Z,1244
2018-08-30T05:26:22.073Z,1160
2018-08-30T05:27:21.812Z,1052
2018-08-30T05:28:22.075Z,1040
2018-08-30T05:29:22.062Z,1056
2018-08-30T05:30:22.056Z,1004
2018-08-30T05:31:22.068Z,752
2018-08-30T05:32:21.792Z,540
2018-08-30T05:33:21.784Z,648
2018-08-30T05:34:21.776Z,772
2018-08-30T05:35:22.036Z,912
2018-08-30T05:36:21.774Z,960
2018-08-30T05:37:21.771Z,1008
2018-08-30T05:38:21.507Z,864
2018-08-30T05:39:22.019Z,916
2018-08-30T05:40:21.500Z,952
2018-08-30T05:41:22.011Z,820
2018-08-30T05:42:22.007Z,724
2018-08-30T05:43:22.001Z,552
2018-08-30T05:44:21.740Z,484
2018-08-30T05:45:21.736Z,548
2018-08-30T05:46:21.476Z,636
2018-08-30T05:47:21.728Z,920
2018-08-30T05:48:21.727Z,908
2018-08-30T05:49:21.461Z,696
2018-08-30T05:50:21.717Z,592
2018-08-30T05:51:21.972Z,700
2018-08-30T05:52:21.964Z,1176
2018-08-30T05:53:21.960Z,1100
2018-08-30T05:54:21.754Z,1028
2018-08-30T05:55:21.702Z,1740
2018-08-30T05:56:21.693Z,2024
2018-08-30T05:57:21.958Z,2964
2018-08-30T05:58:21.949Z,3632
2018-08-30T05:59:21.944Z,2948
2018-08-30T06:00:21.417Z,2652
2018-08-30T06:02:21.929Z,1576
2018-08-30T06:03:21.920Z,1760
2018-08-30T06:04:21.661Z,2716
2018-08-30T06:05:21.417Z,2356
2018-08-30T06:06:21.912Z,2136
2018-08-30T06:07:21.963Z,1884
2018-08-30T06:08:22.141Z,1992
2018-08-30T06:09:21.644Z,2728
2018-08-30T06:10:21.639Z,3140
2018-08-30T06:11:21.646Z,3088
2018-08-30T06:12:21.887Z,3276
2018-08-30T06:13:21.627Z,2192
2018-08-30T06:14:21.879Z,1968
2018-08-30T06:15:21.879Z,2032
2018-08-30T06:16:21.868Z,2352
2018-08-30T06:17:21.876Z,1988
2018-08-30T06:18:21.599Z,1928
2018-08-30T06:19:21.600Z,2320
2018-08-30T06:20:21.851Z,2808
2018-08-30T06:21:21.859Z,2964
2018-08-30T06:22:21.585Z,2680
2018-08-30T06:23:21.839Z,2304
2018-08-30T06:24:21.582Z,1856
2018-08-30T06:25:21.853Z,1632
2018-08-30T06:26:21.833Z,1544
2018-08-30T06:27:21.831Z,1328
2018-08-30T06:28:21.817Z,1508
2018-08-30T06:29:22.186Z,1236
2018-08-30T06:30:21.813Z,1532
2018-08-30T06:31:21.307Z,1932
2018-08-30T06:32:21.555Z,2320
2018-08-30T06:33:21.812Z,2892
2018-08-30T06:34:21.544Z,3112
2018-08-30T06:35:21.806Z,1532
2018-08-30T06:36:21.533Z,1792
2018-08-30T06:37:21.787Z,1140
2018-08-30T06:38:21.297Z,1120
2018-08-30T06:39:21.527Z,1256
2018-08-30T06:40:21.769Z,768
2018-08-30T06:41:21.256Z,628
2018-08-30T06:42:21.515Z,604
2018-08-30T06:43:21.765Z,768
2018-08-30T06:44:21.502Z,988
2018-08-30T06:45:21.937Z,1040
2018-08-30T06:46:21.506Z,956
2018-08-30T06:47:21.755Z,784
2018-08-30T06:48:21.494Z,808
2018-08-30T06:49:21.737Z,820
2018-08-30T06:50:21.734Z,916
2018-08-30T06:51:21.484Z,1148
2018-08-30T06:52:21.477Z,1308
2018-08-30T06:53:21.464Z,1260
2018-08-30T06:54:21.716Z,1188
2018-08-30T06:55:21.708Z,1344
2018-08-30T06:56:21.661Z,1388
2018-08-30T06:57:21.707Z,1460
2018-08-30T06:58:21.928Z,1576
2018-08-30T06:59:21.695Z,1692
2018-08-30T07:00:21.688Z,1968
2018-08-30T07:01:21.433Z,2056
2018-08-30T07:02:21.687Z,2056
2018-08-30T07:03:21.420Z,1812
2018-08-30T07:04:22.166Z,1568
2018-08-30T07:05:21.670Z,1644
2018-08-30T07:06:21.158Z,1656
2018-08-30T07:07:21.399Z,1632
2018-08-30T07:08:21.956Z,1500
2018-08-30T07:09:21.450Z,1492
2018-08-30T07:10:21.398Z,1700
2018-08-30T07:11:21.385Z,1732
2018-08-30T07:12:21.643Z,1644
2018-08-30T07:13:21.377Z,1604
2018-08-30T07:14:21.370Z,1720
2018-08-30T07:15:21.369Z,1992
2018-08-30T07:16:21.621Z,2296
2018-08-30T07:17:21.612Z,2532
2018-08-30T07:18:21.351Z,2720
2018-08-30T07:19:21.344Z,2816
2018-08-30T07:20:21.338Z,2824
2018-08-30T07:21:21.803Z,2624
2018-08-30T07:22:21.594Z,2936
2018-08-30T07:23:21.332Z,3152
2018-08-30T07:24:21.491Z,3280
2018-08-30T07:25:21.063Z,3212
2018-08-30T07:26:21.063Z,2800
2018-08-30T07:27:21.053Z,2588
2018-08-30T07:28:21.570Z,2424
2018-08-30T07:29:21.309Z,2308
2018-08-30T07:30:21.552Z,2400
2018-08-30T07:31:21.550Z,2352
2018-08-30T07:32:21.545Z,2524
2018-08-30T07:33:21.281Z,2524
2018-08-30T07:34:21.959Z,2504
2018-08-30T07:35:21.532Z,2464
2018-08-30T07:36:21.274Z,2716
2018-08-30T07:37:21.527Z,3036
2018-08-30T07:38:21.523Z,3328
2018-08-30T07:39:21.259Z,3140
2018-08-30T07:40:21.251Z,2976
2018-08-30T07:41:21.278Z,2876
2018-08-30T07:42:21.249Z,2644
2018-08-30T07:43:21.498Z,2404
2018-08-30T07:44:22.146Z,2256
2018-08-30T07:45:21.488Z,2060
2018-08-30T07:46:21.485Z,1908
2018-08-30T07:47:21.849Z,1736
2018-08-30T07:48:21.479Z,1672
2018-08-30T07:49:21.213Z,1732
2018-08-30T07:50:21.494Z,1976
2018-08-30T07:51:21.477Z,2080
2018-08-30T07:52:21.203Z,2148
2018-08-30T07:53:21.196Z,2220
2018-08-30T07:54:21.209Z,2368
2018-08-30T07:55:21.194Z,2604
2018-08-30T07:56:21.442Z,2728
2018-08-30T07:57:21.660Z,2896
2018-08-30T07:58:21.430Z,2992
2018-08-30T07:59:21.425Z,2924
2018-08-30T08:00:21.425Z,3084
2018-08-30T08:01:21.172Z,3128
2018-08-30T08:02:21.159Z,3172
2018-08-30T08:03:21.406Z,3384
2018-08-30T08:04:21.153Z,3408
2018-08-30T08:05:21.141Z,3196
2018-08-30T08:06:21.400Z,2904
2018-08-30T08:07:21.384Z,2840
2018-08-30T08:08:21.397Z,2900
2018-08-30T08:09:21.376Z,2880
2018-08-30T08:10:20.861Z,2664
2018-08-30T08:11:21.123Z,2888
2018-08-30T08:12:21.108Z,3148
2018-08-30T08:13:21.362Z,3064
2018-08-30T08:14:20.850Z,2952
2018-08-30T08:15:21.348Z,2840
2018-08-30T08:16:21.344Z,2864
2018-08-30T08:17:21.086Z,2872
2018-08-30T08:18:20.825Z,2784
2018-08-30T08:19:21.500Z,2628
2018-08-30T08:20:21.333Z,2736
2018-08-30T08:21:21.072Z,2900
2018-08-30T08:22:21.322Z,2756
2018-08-30T08:23:21.065Z,2456
2018-08-30T08:24:21.313Z,2352
2018-08-30T08:25:21.175Z,2496
2018-08-30T08:26:20.788Z,2576
2018-08-30T08:27:21.301Z,2544
2018-08-30T08:28:21.303Z,2416
2018-08-30T08:29:21.295Z,2368
2018-08-30T08:30:20.776Z,2640
2018-08-30T08:31:21.319Z,2940
2018-08-30T08:32:21.024Z,3420
2018-08-30T08:33:21.276Z,3548
2018-08-30T08:34:21.270Z,3296
2018-08-30T08:35:21.264Z,3464
2018-08-30T08:36:21.263Z,3768
2018-08-30T08:37:21.252Z,3844
2018-08-30T08:38:20.732Z,3520
2018-08-30T08:39:21.241Z,3208
2018-08-30T08:40:21.242Z,3536
2018-08-30T08:41:20.974Z,4016
2018-08-30T08:42:21.236Z,4064
2018-08-30T08:43:20.965Z,3836
2018-08-30T08:44:21.216Z,3800
2018-08-30T08:45:21.220Z,3840
2018-08-30T08:46:20.951Z,3852
2018-08-30T08:47:20.949Z,3900
2018-08-30T08:48:21.202Z,4124
2018-08-30T08:49:21.196Z,4428
2018-08-30T08:50:21.198Z,4500
2018-08-30T08:51:20.913Z,5080
2018-08-30T08:52:21.189Z,5936
2018-08-30T08:53:20.919Z,6220
2018-08-30T08:54:21.174Z,5536
2018-08-30T08:55:21.173Z,5376
2018-08-30T08:56:21.172Z,4784
2018-08-30T08:57:20.905Z,4148
2018-08-30T08:58:20.899Z,3960
2018-08-30T08:59:21.348Z,3996
2018-08-30T09:00:21.156Z,4324
2018-08-30T09:01:21.089Z,4568
2018-08-30T09:02:20.897Z,4540
2018-08-30T09:03:20.884Z,4684
2018-08-30T09:04:21.137Z,5320
2018-08-30T09:05:20.615Z,4696
2018-08-30T09:06:21.124Z,3964
2018-08-30T09:07:21.110Z,3904
2018-08-30T09:08:20.856Z,4556
2018-08-30T09:09:21.124Z,5560
2018-08-30T09:10:20.851Z,6456
2018-08-30T09:11:21.098Z,7420
2018-08-30T09:12:21.095Z,7788
2018-08-30T09:13:20.833Z,7324
2018-08-30T09:14:21.246Z,6368
2018-08-30T09:15:20.830Z,5228
2018-08-30T09:16:21.079Z,3988
2018-08-30T09:17:21.071Z,4280
2018-08-30T09:18:21.187Z,4996
2018-08-30T09:19:21.064Z,5000
2018-08-30T09:20:21.065Z,4536
2018-08-30T09:21:20.799Z,4600
2018-08-30T09:22:21.051Z,4512
2018-08-30T09:23:21.361Z,4064
2018-08-30T09:24:20.536Z,3864
2018-08-30T09:25:20.790Z,4116
2018-08-30T09:26:21.040Z,4480
2018-08-30T09:27:21.319Z,4112
2018-08-30T09:28:21.033Z,3184
2018-08-30T09:29:21.035Z,2656
2018-08-30T09:30:21.032Z,2928
2018-08-30T09:31:21.019Z,2980
2018-08-30T09:32:21.013Z,3640
2018-08-30T09:33:20.753Z,3824
2018-08-30T09:34:21.006Z,5320
2018-08-30T09:35:21.006Z,4688
2018-08-30T09:36:21.013Z,4772
2018-08-30T09:37:20.736Z,7712
2018-08-30T09:38:20.476Z,8400
2018-08-30T09:39:20.985Z,6220
2018-08-30T09:40:20.473Z,4268
2018-08-30T09:41:20.982Z,4520
2018-08-30T09:42:20.465Z,5684
2018-08-30T09:43:20.713Z,6324
2018-08-30T09:44:20.969Z,4332
2018-08-30T09:45:20.978Z,4592
2018-08-30T09:46:20.963Z,4948
2018-08-30T09:47:20.699Z,6132
2018-08-30T09:48:20.694Z,6032
2018-08-30T09:49:21.201Z,5116
2018-08-30T09:50:20.684Z,5096
2018-08-30T09:51:20.942Z,5568
2018-08-30T09:52:20.421Z,6960
2018-08-30T09:53:20.932Z,7556
2018-08-30T09:54:20.669Z,6552
2018-08-30T09:55:20.932Z,5272
2018-08-30T09:56:20.678Z,5364
2018-08-30T09:57:22.230Z,5740
2018-08-30T09:58:20.654Z,6820
2018-08-30T09:59:20.918Z,7456
2018-08-30T10:00:20.651Z,7652
2018-08-30T10:01:20.640Z,5792
2018-08-30T10:02:20.900Z,4820
2018-08-30T10:03:20.897Z,4776
2018-08-30T10:04:20.896Z,4940
2018-08-30T10:05:21.045Z,6368
2018-08-30T10:06:20.627Z,8656
2018-08-30T10:07:20.882Z,9580
2018-08-30T10:08:20.880Z,8680
2018-08-30T10:09:20.613Z,8656
2018-08-30T10:10:20.615Z,7776
2018-08-30T10:11:20.351Z,7568
2018-08-30T10:12:20.857Z,6936
2018-08-30T10:13:20.601Z,6184
2018-08-30T10:14:20.854Z,5280
2018-08-30T10:15:20.590Z,5288
2018-08-30T10:16:20.850Z,4948
2018-08-30T10:17:20.844Z,4252
2018-08-30T10:18:20.333Z,4092
2018-08-30T10:19:20.578Z,3592
2018-08-30T10:20:20.580Z,3508
2018-08-30T10:21:20.393Z,2708
2018-08-30T10:22:20.825Z,2592
2018-08-30T10:23:20.829Z,2640
2018-08-30T10:24:20.819Z,2632
2018-08-30T10:25:20.780Z,2996
2018-08-30T10:26:20.297Z,3720
2018-08-30T10:27:20.293Z,3216
2018-08-30T10:28:20.802Z,2384
2018-08-30T10:29:20.539Z,1960
2018-08-30T10:30:20.796Z,1636
2018-08-30T10:31:20.831Z,1352
2018-08-30T10:32:20.536Z,1588
2018-08-30T10:33:20.533Z,2016
2018-08-30T10:34:20.521Z,2308
2018-08-30T10:35:20.807Z,2204
2018-08-30T10:36:20.773Z,2464
2018-08-30T10:37:20.789Z,3392
2018-08-30T10:38:20.525Z,3340
2018-08-30T10:39:20.754Z,3632
2018-08-30T10:40:20.492Z,4120
2018-08-30T10:41:20.491Z,3868
2018-08-30T10:42:20.743Z,3940
2018-08-30T10:43:20.541Z,4248
2018-08-30T10:44:20.477Z,3900
2018-08-30T10:45:20.727Z,3320
2018-08-30T10:46:20.726Z,5708
2018-08-30T10:47:20.201Z,5344
2018-08-30T10:48:20.454Z,6968
2018-08-30T10:49:20.877Z,5352
2018-08-30T10:50:20.711Z,6112
2018-08-30T10:51:20.450Z,6868
2018-08-30T10:52:20.687Z,5672
2018-08-30T10:53:20.687Z,6464
2018-08-30T10:54:20.690Z,6244
2018-08-30T10:55:20.424Z,6168
2018-08-30T10:56:21.000Z,5512
2018-08-30T10:57:20.152Z,6008
2018-08-30T10:58:20.509Z,5656
2018-08-30T10:59:20.658Z,6392
2018-08-30T11:00:20.655Z,7396
2018-08-30T11:01:20.390Z,7208
2018-08-30T11:02:20.654Z,9248
2018-08-30T11:03:20.381Z,11380
2018-08-30T11:04:20.921Z,12136
2018-08-30T11:05:20.371Z,8904
2018-08-30T11:06:21.221Z,9956
2018-08-30T11:15:00.024Z,7192
2018-08-30T11:15:09.135Z,6288
2018-08-30T11:16:09.652Z,9820
2018-08-30T11:17:09.648Z,8176
2018-08-30T11:18:09.653Z,9992
2018-08-30T11:19:09.628Z,7624
2018-08-30T11:20:09.377Z,4140
2018-08-30T11:21:09.373Z,7664
2018-08-30T11:22:09.377Z,8860
2018-08-30T11:23:09.370Z,8040
2018-08-30T11:24:09.626Z,7400
2018-08-30T11:25:09.357Z,9420
2018-08-30T11:26:09.620Z,7252
2018-08-30T11:27:09.613Z,4384
2018-08-30T11:28:09.088Z,3424
2018-08-30T11:29:09.340Z,2292
2018-08-30T11:30:09.595Z,2096
2018-08-30T11:31:09.590Z,2132
2018-08-30T11:32:09.069Z,2344
2018-08-30T11:33:09.326Z,2812
2018-08-30T11:34:09.316Z,4952
2018-08-30T11:35:09.310Z,7596
2018-08-30T11:36:09.311Z,10796
2018-08-30T11:37:09.305Z,11452
2018-08-30T11:38:09.567Z,10912
2018-08-30T11:39:09.547Z,13012
2018-08-30T11:40:09.544Z,10876
2018-08-30T11:41:09.099Z,8340
2018-08-30T11:42:09.283Z,9288
2018-08-30T11:43:09.581Z,5704
2018-08-30T11:44:09.275Z,3764
2018-08-30T11:45:09.529Z,2808
2018-08-30T11:46:09.520Z,2932
2018-08-30T11:47:09.256Z,2884
2018-08-30T11:48:09.507Z,2840
2018-08-30T11:49:09.508Z,2568
2018-08-30T11:50:09.243Z,2556
2018-08-30T11:51:09.433Z,2032
2018-08-30T11:52:09.346Z,2120
2018-08-30T11:53:09.495Z,2100
2018-08-30T11:54:09.601Z,1960
2018-08-30T11:55:09.218Z,1412
2018-08-30T11:56:09.515Z,1364
2018-08-30T11:57:09.474Z,1684
2018-08-30T11:58:08.946Z,2492
2018-08-30T11:59:08.940Z,2508
2018-08-30T12:00:08.935Z,3476
2018-08-30T12:01:09.235Z,3444
2018-08-30T12:02:09.442Z,4232
2018-08-30T12:03:09.243Z,4944
2018-08-30T12:04:09.458Z,5272
2018-08-30T12:05:08.914Z,5524
2018-08-30T12:06:09.159Z,5764
2018-08-30T12:07:09.471Z,6164
2018-08-30T12:08:09.933Z,5780
2018-08-30T12:09:09.406Z,4784
2018-08-30T12:10:09.225Z,4516
2018-08-30T12:11:09.970Z,4408
2018-08-30T12:12:08.872Z,4196
2018-08-30T12:13:09.130Z,4880
2018-08-30T12:14:09.118Z,4836
2018-08-30T12:15:09.380Z,5924
2018-08-30T12:16:09.371Z,5776
2018-08-30T12:17:09.109Z,5108
2018-08-30T12:18:09.354Z,4712
2018-08-30T12:19:09.129Z,4680
2018-08-30T12:20:09.342Z,4560
2018-08-30T12:21:09.366Z,4972
2018-08-30T12:22:08.817Z,3436
2018-08-30T12:23:08.810Z,2356
2018-08-30T12:24:09.079Z,2212
2018-08-30T12:25:09.059Z,1784
2018-08-30T12:26:09.067Z,1972
2018-08-30T12:27:09.342Z,2068
2018-08-30T12:28:09.117Z,2340
2018-08-30T12:29:09.513Z,2472
2018-08-30T12:30:09.610Z,2892
2018-08-30T12:31:09.317Z,3156
2018-08-30T12:32:08.818Z,3248
2018-08-30T12:33:09.380Z,3168
2018-08-30T12:34:09.830Z,3372
2018-08-30T12:35:10.044Z,4468
2018-08-30T12:36:09.251Z,4356
2018-08-30T12:37:09.071Z,4688
2018-08-30T12:38:09.311Z,6424
2018-08-30T12:39:09.125Z,8800
2018-08-30T12:40:09.921Z,7188
2018-08-30T12:41:08.846Z,5796
2018-08-30T12:42:09.101Z,4816
2018-08-30T12:43:09.812Z,3788
2018-08-30T12:44:09.492Z,3132
2018-08-30T12:45:08.771Z,2620
2018-08-30T12:46:08.793Z,2324
2018-08-30T12:47:08.994Z,2248
2018-08-30T12:48:09.306Z,2112
2018-08-30T12:49:09.054Z,2188
2018-08-30T12:50:10.013Z,2752
2018-08-30T12:51:09.553Z,2884
2018-08-30T12:52:09.358Z,3244
2018-08-30T12:53:08.429Z,4184
2018-08-30T12:54:10.057Z,4804
2018-08-30T12:55:09.683Z,4140
2018-08-30T12:56:09.600Z,4072
2018-08-30T12:57:09.867Z,4252
2018-08-30T12:58:09.172Z,2960
2018-08-30T12:59:09.968Z,2412
2018-08-30T13:00:10.397Z,2652
2018-08-30T13:01:10.009Z,2436
2018-08-30T13:02:09.726Z,2628
2018-08-30T13:03:09.968Z,2756
2018-08-30T13:04:10.567Z,2416
2018-08-30T13:05:09.935Z,2204
2018-08-30T13:06:11.628Z,2124
2018-08-30T13:07:10.526Z,1776
2018-08-30T13:08:09.635Z,1648
2018-08-30T13:09:11.446Z,1680
2018-08-30T13:10:09.977Z,2188
2018-08-30T13:11:10.365Z,3056
2018-08-30T13:12:11.830Z,3772
2018-08-30T13:13:10.735Z,3468
2018-08-30T13:14:10.662Z,2548
2018-08-30T13:15:10.646Z,2144
2018-08-30T13:16:10.524Z,2004
2018-08-30T13:17:09.841Z,2132
2018-08-30T13:18:09.783Z,2256
2018-08-30T13:19:10.881Z,2088
2018-08-30T13:20:10.931Z,1860
2018-08-30T13:21:11.070Z,1652
2018-08-30T13:22:10.428Z,1384
2018-08-30T13:23:10.193Z,1316
2018-08-30T13:24:09.638Z,1412
2018-08-30T13:25:10.611Z,1596
2018-08-30T13:26:09.400Z,2008
2018-08-30T13:27:10.344Z,1864
2018-08-30T13:28:11.103Z,1836
2018-08-30T13:29:10.340Z,2060
2018-08-30T13:30:10.480Z,2096
2018-08-30T13:31:10.513Z,2816
2018-08-30T13:32:11.896Z,3452
2018-08-30T13:33:10.981Z,3996
2018-08-30T13:34:11.912Z,4500
2018-08-30T13:35:10.981Z,4892
2018-08-30T13:36:11.389Z,4616
2018-08-30T13:37:12.140Z,5040
2018-08-30T13:38:11.112Z,5064
2018-08-30T13:39:10.507Z,4752
2018-08-30T13:40:11.978Z,4880
2018-08-30T13:41:12.749Z,5632
2018-08-30T13:42:12.555Z,6004
2018-08-30T13:43:12.382Z,5680
2018-08-30T13:44:11.055Z,5760
2018-08-30T13:45:09.813Z,5652
2018-08-30T13:46:11.733Z,5620
2018-08-30T13:47:12.183Z,5928
2018-08-30T13:48:10.791Z,6380
2018-08-30T13:49:11.738Z,7016
2018-08-30T13:50:10.681Z,7732
2018-08-30T13:51:11.259Z,8512
2018-08-30T13:52:10.751Z,8396
2018-08-30T13:53:11.667Z,7976
2018-08-30T13:54:12.477Z,10200
2018-08-30T13:55:11.819Z,11284